Time;durP1;ratioP1;P1;durP2;ratioP2;P2;SDS_P1;SDS_P2;PMS_P1;PMS_P2;Temp;Humidity;BMP_temperature;BMP_pressure;BME280_temperature;BME280_humidity;BME280_pressure;Samples;Min_cycle;Max_cycle;Signal;HPM_P1;HPM_P2
2023/01/20 00:01:02;;;;;;;;;;;-4.20;99.90;;;;;;5055010;28;20292;-80
2023/01/20 00:03:27;;;;;;;;;;;-4.30;99.90;;;;;;5037355;28;19912;-80
2023/01/20 00:05:53;;;;;;;;;;;-4.30;99.90;;;;;;5055566;28;20365;-80
2023/01/20 00:08:18;;;;;;;;;;;-4.30;99.90;;;;;;5055712;28;19955;-80
2023/01/20 00:10:44;;;;;;;;;;;-4.40;99.90;;;;;;5037558;28;19917;-80
2023/01/20 00:13:12;;;;;;;;;;;-4.40;99.90;;;;;;5055316;28;20293;-80
2023/01/20 00:15:38;;;;;;;;;;;-4.40;99.90;;;;;;5055323;28;19913;-80
2023/01/20 00:18:03;;;;;;;;;;;-4.40;99.90;;;;;;5055191;28;19927;-80
2023/01/20 00:20:29;;;;;;;;;;;-4.40;99.90;;;;;;5036992;28;19913;-80
2023/01/20 00:22:54;;;;;;;;;;;-4.50;99.90;;;;;;5054855;28;20288;-80
2023/01/20 00:25:20;;;;;;;;;;;-4.50;99.90;;;;;;5054611;28;19913;-80
2023/01/20 00:27:46;;;;;;;;;;;-4.60;99.90;;;;;;5054973;28;19915;-81
2023/01/20 00:30:12;;;;;;;;;;;-4.60;99.90;;;;;;5037053;28;19920;-80
2023/01/20 00:32:38;;;;;;;;;;;-4.70;99.90;;;;;;5054478;28;19909;-80
2023/01/20 00:35:05;;;;;;;;;;;-4.70;99.90;;;;;;5054966;28;19913;-80
2023/01/20 00:37:30;;;;;;;;;;;-4.80;99.90;;;;;;5036872;28;19952;-80
2023/01/20 00:39:56;;;;;;;;;;;-4.80;99.90;;;;;;5020259;28;19917;-80
2023/01/20 00:42:22;;;;;;;;;;;-4.80;99.90;;;;;;5054592;28;19924;-81
2023/01/20 00:44:48;;;;;;;;;;;-4.70;99.90;;;;;;5036730;28;19963;-81
2023/01/20 00:47:13;;;;;;;;;;;-4.70;99.90;;;;;;5054443;28;19915;-80
2023/01/20 00:49:39;;;;;;;;;;;-4.70;99.90;;;;;;5054654;28;20020;-80
2023/01/20 00:52:04;;;;;;;;;;;-4.60;99.90;;;;;;5036681;28;19959;-80
2023/01/20 00:54:30;;;;;;;;;;;-4.60;99.90;;;;;;5036815;28;19913;-80
2023/01/20 00:56:55;;;;;;;;;;;-4.60;99.90;;;;;;5054723;28;20050;-80
2023/01/20 00:59:21;;;;;;;;;;;-4.60;99.90;;;;;;5036459;28;19917;-80
2023/01/20 01:01:46;;;;;;;;;;;-4.50;99.90;;;;;;5054468;28;19920;-80
2023/01/20 01:04:12;;;;;;;;;;;-4.50;99.90;;;;;;5054564;28;19963;-81
2023/01/20 01:06:38;;;;;;;;;;;-4.50;99.90;;;;;;5054663;28;19920;-80
2023/01/20 01:09:04;;;;;;;;;;;-4.40;99.90;;;;;;5054388;28;19917;-80
2023/01/20 01:11:29;;;;;;;;;;;-4.40;99.90;;;;;;5036557;28;19945;-79
2023/01/20 01:13:56;;;;;;;;;;;-4.40;99.90;;;;;;5036145;28;19948;-80
2023/01/20 01:16:22;;;;;;;;;;;-4.40;99.90;;;;;;5054921;28;19913;-80
2023/01/20 01:18:47;;;;;;;;;;;-4.40;99.90;;;;;;5052145;28;19979;-79
2023/01/20 01:21:14;;;;;;;;;;;-4.40;99.90;;;;;;5065096;28;19909;-81
2023/01/20 01:23:40;;;;;;;;;;;-4.40;99.90;;;;;;5056703;28;19932;-81
2023/01/20 01:26:05;;;;;;;;;;;-4.40;99.90;;;;;;5055992;28;20361;-81
2023/01/20 01:28:31;;;;;;;;;;;-4.40;99.90;;;;;;5055889;28;19920;-80
2023/01/20 01:31:00;;;;;;;;;;;-4.40;99.90;;;;;;5021055;28;19917;-80
2023/01/20 01:33:26;;;;;;;;;;;-4.40;99.90;;;;;;5037225;28;19996;-80
2023/01/20 01:35:56;;;;;;;;;;;-4.40;99.90;;;;;;5056169;28;20380;-80
2023/01/20 01:38:22;;;;;;;;;;;-4.40;99.90;;;;;;5040678;28;20011;-80
2023/01/20 01:40:48;;;;;;;;;;;-4.30;99.90;;;;;;5058984;28;19947;-80
2023/01/20 01:43:20;;;;;;;;;;;-4.30;99.90;;;;;;5058586;28;19909;-80
2023/01/20 01:45:45;;;;;;;;;;;-4.30;99.90;;;;;;5058481;28;20276;-80
2023/01/20 01:48:11;;;;;;;;;;;-4.30;99.90;;;;;;5058100;28;19990;-81
2023/01/20 01:50:40;;;;;;;;;;;-4.30;99.90;;;;;;5057899;28;19920;-80
2023/01/20 01:53:06;;;;;;;;;;;-4.30;99.90;;;;;;5057853;28;20258;-80
2023/01/20 01:55:33;;;;;;;;;;;-4.30;99.90;;;;;;5057514;28;20292;-80
2023/01/20 01:58:00;;;;;;;;;;;-4.30;99.90;;;;;;5057506;28;19913;-80
2023/01/20 02:00:25;;;;;;;;;;;-4.30;99.90;;;;;;5039652;28;19956;-80
2023/01/20 02:02:51;;;;;;;;;;;-4.30;99.90;;;;;;5039675;28;19909;-80
2023/01/20 02:05:18;;;;;;;;;;;-4.20;99.90;;;;;;5057172;28;19909;-80
2023/01/20 02:07:45;;;;;;;;;;;-4.20;99.90;;;;;;5057495;28;19909;-80
2023/01/20 02:10:11;;;;;;;;;;;-4.20;99.90;;;;;;5057203;28;19913;-80
2023/01/20 02:12:37;;;;;;;;;;;-4.20;99.90;;;;;;5039321;28;20301;-80
2023/01/20 02:15:03;;;;;;;;;;;-4.20;99.90;;;;;;5039591;28;19913;-80
2023/01/20 02:17:30;;;;;;;;;;;-4.20;99.90;;;;;;5056974;28;19916;-80
2023/01/20 02:20:02;;;;;;;;;;;-4.20;99.90;;;;;;5057043;28;19931;-80
2023/01/20 02:23:00;;;;;;;;;;;-4.20;99.90;;;;;;5057011;28;19916;-80
2023/01/20 02:25:25;;;;;;;;;;;-4.20;99.90;;;;;;5006320;28;19916;-81
2023/01/20 02:27:51;;;;;;;;;;;-4.20;99.90;;;;;;5056574;28;20063;-80
2023/01/20 02:30:35;;;;;;;;;;;-4.20;99.90;;;;;;5056453;28;20287;-80
2023/01/20 02:33:09;;;;;;;;;;;-4.10;99.90;;;;;;5056441;28;20292;-80
2023/01/20 02:35:38;;;;;;;;;;;-4.20;99.90;;;;;;5056854;28;19936;-81
2023/01/20 02:38:07;;;;;;;;;;;-4.20;99.90;;;;;;5038578;28;19908;-80
2023/01/20 02:40:38;;;;;;;;;;;-4.20;99.90;;;;;;5056442;28;19920;-81
2023/01/20 02:43:09;;;;;;;;;;;-4.20;99.90;;;;;;5038218;28;19909;-81
2023/01/20 02:45:35;;;;;;;;;;;-4.10;99.90;;;;;;5056148;28;20003;-80
2023/01/20 02:48:21;;;;;;;;;;;-4.10;99.90;;;;;;5055672;28;20346;-80
2023/01/20 02:51:08;;;;;;;;;;;-4.10;99.90;;;;;;5037766;28;20008;-80
2023/01/20 02:53:45;;;;;;;;;;;-4.20;99.90;;;;;;5056866;28;19916;-79
2023/01/20 02:56:11;;;;;;;;;;;-4.20;99.90;;;;;;5056493;28;19931;-80
2023/01/20 02:58:45;;;;;;;;;;;-4.20;99.90;;;;;;5056293;28;19916;-80
2023/01/20 03:01:15;;;;;;;;;;;-4.20;99.90;;;;;;5056252;28;20408;-80
2023/01/20 03:03:43;;;;;;;;;;;-4.20;99.90;;;;;;5057214;28;19916;-80
2023/01/20 03:06:11;;;;;;;;;;;-4.30;99.90;;;;;;5039185;28;19909;-80
2023/01/20 03:08:39;;;;;;;;;;;-4.30;99.90;;;;;;5055613;28;19995;-80
2023/01/20 03:11:05;;;;;;;;;;;-4.30;99.90;;;;;;5055739;28;19913;-79
2023/01/20 03:13:34;;;;;;;;;;;-4.30;99.90;;;;;;5055684;28;19962;-79
2023/01/20 03:16:05;;;;;;;;;;;-4.30;99.90;;;;;;5055790;28;19909;-80
2023/01/20 03:18:31;;;;;;;;;;;-4.30;99.90;;;;;;5037631;28;19909;-80
2023/01/20 03:20:57;;;;;;;;;;;-4.30;99.90;;;;;;5055036;28;19924;-80
2023/01/20 03:23:24;;;;;;;;;;;-4.30;99.90;;;;;;5054869;28;19952;-80
2023/01/20 03:25:49;;;;;;;;;;;-4.30;99.90;;;;;;5055237;28;19913;-80
2023/01/20 03:28:15;;;;;;;;;;;-4.30;99.90;;;;;;5037301;28;19916;-80
2023/01/20 03:30:41;;;;;;;;;;;-4.30;99.90;;;;;;5055531;28;19967;-80
2023/01/20 03:33:06;;;;;;;;;;;-4.30;99.90;;;;;;5038142;28;20015;-80
2023/01/20 03:35:33;;;;;;;;;;;-4.30;99.90;;;;;;5065645;28;19967;-80
2023/01/20 03:37:58;;;;;;;;;;;-4.30;99.90;;;;;;5066542;28;19913;-81
2023/01/20 03:40:27;;;;;;;;;;;-4.30;99.90;;;;;;5039560;28;19913;-81
2023/01/20 03:42:58;;;;;;;;;;;-4.30;99.90;;;;;;5057056;28;19915;-81
2023/01/20 03:45:30;;;;;;;;;;;-4.30;99.90;;;;;;5038675;28;20283;-81
2023/01/20 03:48:07;;;;;;;;;;;-4.20;99.90;;;;;;5038270;28;19932;-80
2023/01/20 03:50:39;;;;;;;;;;;-4.20;99.90;;;;;;5055998;28;19913;-80
2023/01/20 03:53:23;;;;;;;;;;;-4.20;99.90;;;;;;5055657;28;19909;-79
2023/01/20 03:55:52;;;;;;;;;;;-4.20;99.90;;;;;;5055230;28;19909;-79
2023/01/20 03:58:19;;;;;;;;;;;-4.20;99.90;;;;;;5055096;28;20274;-79
2023/01/20 04:00:46;;;;;;;;;;;-4.20;99.90;;;;;;5053942;28;20332;-80
2023/01/20 04:03:25;;;;;;;;;;;-4.20;99.90;;;;;;5036873;28;20557;-80
2023/01/20 04:05:50;;;;;;;;;;;-4.20;99.90;;;;;;5054607;28;20385;-79
2023/01/20 04:08:17;;;;;;;;;;;-4.20;99.90;;;;;;5054714;28;19920;-80
2023/01/20 04:10:46;;;;;;;;;;;-4.20;99.90;;;;;;5037051;28;20335;-80
2023/01/20 04:13:12;;;;;;;;;;;-4.10;99.90;;;;;;5054525;28;20381;-80
2023/01/20 04:15:40;;;;;;;;;;;-4.20;99.90;;;;;;5055052;28;20304;-80
2023/01/20 04:18:23;;;;;;;;;;;-4.20;99.90;;;;;;5054465;28;20361;-80
2023/01/20 04:20:51;;;;;;;;;;;-4.20;99.90;;;;;;5054378;28;19908;-80
2023/01/20 04:23:43;;;;;;;;;;;-4.20;99.90;;;;;;5036690;28;19909;-80
2023/01/20 04:26:09;;;;;;;;;;;-4.20;99.90;;;;;;5051264;28;19931;-79
2023/01/20 04:28:34;;;;;;;;;;;-4.20;99.90;;;;;;5054214;28;19913;-80
2023/01/20 04:31:00;;;;;;;;;;;-4.20;99.90;;;;;;5054242;28;19921;-79
2023/01/20 04:33:25;;;;;;;;;;;-4.20;99.90;;;;;;5036573;28;19913;-80
2023/01/20 04:35:51;;;;;;;;;;;-4.20;99.90;;;;;;5054364;28;20082;-80
2023/01/20 04:38:17;;;;;;;;;;;-4.10;99.90;;;;;;5054743;28;19912;-80
2023/01/20 04:40:42;;;;;;;;;;;-4.20;99.90;;;;;;5036336;28;19913;-80
2023/01/20 04:43:09;;;;;;;;;;;-4.10;99.90;;;;;;5036522;28;19948;-80
2023/01/20 04:45:34;;;;;;;;;;;-4.10;99.90;;;;;;5055301;28;20380;-81
2023/01/20 04:48:00;;;;;;;;;;;-4.10;99.90;;;;;;5036376;28;19912;-81
2023/01/20 04:50:25;;;;;;;;;;;-4.10;99.90;;;;;;5036341;28;19917;-80
2023/01/20 04:52:54;;;;;;;;;;;-4.10;99.90;;;;;;5036592;28;20316;-80
2023/01/20 04:55:20;;;;;;;;;;;-4.10;99.90;;;;;;5054923;28;19963;-80
2023/01/20 04:57:46;;;;;;;;;;;-4.10;99.90;;;;;;5055071;28;19916;-80
2023/01/20 05:00:17;;;;;;;;;;;-4.10;99.90;;;;;;5054273;28;19944;-80
2023/01/20 05:02:43;;;;;;;;;;;-4.10;99.90;;;;;;5036471;28;19944;-80
2023/01/20 05:05:09;;;;;;;;;;;-4.10;99.90;;;;;;5054892;28;20349;-79
2023/01/20 05:07:51;;;;;;;;;;;-4.10;99.90;;;;;;5012752;28;20112;-79
2023/01/20 05:10:16;;;;;;;;;;;-4.10;99.90;;;;;;5035990;28;19928;-80
2023/01/20 05:12:42;;;;;;;;;;;-4.10;99.90;;;;;;5040668;28;19917;-80
2023/01/20 05:15:07;;;;;;;;;;;-4.10;99.90;;;;;;5023867;28;19913;-80
2023/01/20 05:17:33;;;;;;;;;;;-4.00;99.90;;;;;;5058366;28;19913;-80
2023/01/20 05:19:59;;;;;;;;;;;-4.00;99.90;;;;;;5058204;28;19955;-80
2023/01/20 05:22:24;;;;;;;;;;;-4.10;99.90;;;;;;5058096;28;20288;-80
2023/01/20 05:24:50;;;;;;;;;;;-4.10;99.90;;;;;;5057993;28;19913;-79
2023/01/20 05:27:15;;;;;;;;;;;-4.10;99.90;;;;;;5058134;28;19913;-80
2023/01/20 05:29:41;;;;;;;;;;;-4.00;99.90;;;;;;5023384;28;19960;-79
2023/01/20 05:32:06;;;;;;;;;;;-4.10;99.90;;;;;;5058775;28;20357;-80
2023/01/20 05:34:32;;;;;;;;;;;-4.10;99.90;;;;;;5023737;28;20434;-79
2023/01/20 05:36:57;;;;;;;;;;;-4.10;99.90;;;;;;5058113;28;19955;-79
2023/01/20 05:39:23;;;;;;;;;;;-4.10;99.90;;;;;;5058728;28;19943;-79
2023/01/20 05:41:49;;;;;;;;;;;-4.10;99.90;;;;;;5058122;28;20079;-80
2023/01/20 05:44:14;;;;;;;;;;;-4.10;99.90;;;;;;5058759;28;19958;-80
2023/01/20 05:46:40;;;;;;;;;;;-4.10;99.90;;;;;;5058571;28;20364;-78
2023/01/20 05:49:05;;;;;;;;;;;-4.10;99.90;;;;;;5057735;28;19913;-78
2023/01/20 05:51:31;;;;;;;;;;;-4.10;99.90;;;;;;5057809;28;19913;-78
2023/01/20 05:53:57;;;;;;;;;;;-4.10;99.90;;;;;;5077134;28;19904;-78
2023/01/20 05:56:22;;;;;;;;;;;-4.10;99.90;;;;;;5062594;28;19917;-78
2023/01/20 05:58:48;;;;;;;;;;;-4.10;99.90;;;;;;5057722;28;19913;-78
2023/01/20 06:01:13;;;;;;;;;;;-4.10;99.90;;;;;;5057116;28;20391;-78
2023/01/20 06:03:39;;;;;;;;;;;-4.10;99.90;;;;;;5058033;28;19908;-78
2023/01/20 06:06:06;;;;;;;;;;;-4.20;99.90;;;;;;5040515;28;19908;-78
2023/01/20 06:08:31;;;;;;;;;;;-4.20;99.90;;;;;;5057984;28;19909;-77
2023/01/20 06:10:57;;;;;;;;;;;-4.20;99.90;;;;;;5058586;28;19913;-78
2023/01/20 06:13:23;;;;;;;;;;;-4.20;99.90;;;;;;5058154;28;19912;-78
2023/01/20 06:15:52;;;;;;;;;;;-4.20;99.90;;;;;;5058260;28;19915;-78
2023/01/20 06:18:18;;;;;;;;;;;-4.20;99.90;;;;;;5057736;28;19909;-77
2023/01/20 06:20:44;;;;;;;;;;;-4.20;99.90;;;;;;5057284;28;20395;-78
2023/01/20 06:23:09;;;;;;;;;;;-4.20;99.90;;;;;;5039766;28;20365;-77
2023/01/20 06:25:35;;;;;;;;;;;-4.10;99.90;;;;;;5058056;28;19909;-77
2023/01/20 06:28:00;;;;;;;;;;;-4.20;99.90;;;;;;5058259;28;19912;-77
2023/01/20 06:30:26;;;;;;;;;;;-4.20;99.90;;;;;;5040172;28;19919;-78
2023/01/20 06:32:53;;;;;;;;;;;-4.30;99.90;;;;;;5058467;28;19917;-78
2023/01/20 06:35:19;;;;;;;;;;;-4.30;99.90;;;;;;5040072;28;19916;-78
2023/01/20 06:37:45;;;;;;;;;;;-4.40;99.90;;;;;;5057812;28;19909;-78
2023/01/20 06:40:10;;;;;;;;;;;-4.40;99.90;;;;;;5057700;28;19909;-78
2023/01/20 06:42:36;;;;;;;;;;;-4.40;99.90;;;;;;5057002;28;20388;-78
2023/01/20 06:45:02;;;;;;;;;;;-4.40;99.90;;;;;;5057575;28;19916;-77
2023/01/20 06:47:27;;;;;;;;;;;-4.40;99.90;;;;;;5056588;28;19913;-77
2023/01/20 06:49:53;;;;;;;;;;;-4.40;99.90;;;;;;5056880;28;20358;-78
2023/01/20 06:52:18;;;;;;;;;;;-4.40;99.90;;;;;;5056612;28;19931;-78
2023/01/20 06:54:44;;;;;;;;;;;-4.40;99.90;;;;;;5038936;28;19913;-78
2023/01/20 06:57:09;;;;;;;;;;;-4.30;99.90;;;;;;5039226;28;19913;-78
2023/01/20 06:59:35;;;;;;;;;;;-4.30;99.90;;;;;;5056673;28;19913;-78
2023/01/20 07:02:00;;;;;;;;;;;-4.30;99.90;;;;;;5056950;28;20011;-78
2023/01/20 07:04:26;;;;;;;;;;;-4.30;99.90;;;;;;5057272;28;19913;-78
2023/01/20 07:06:51;;;;;;;;;;;-4.30;99.90;;;;;;5056819;28;19917;-78
2023/01/20 07:09:17;;;;;;;;;;;-4.30;99.90;;;;;;5039045;28;19912;-78
2023/01/20 07:11:42;;;;;;;;;;;-4.20;99.90;;;;;;5056714;28;19913;-78
2023/01/20 07:14:09;;;;;;;;;;;-4.30;99.90;;;;;;5056931;28;20392;-78
2023/01/20 07:16:34;;;;;;;;;;;-4.30;99.90;;;;;;5059558;28;19984;-78
2023/01/20 07:19:00;;;;;;;;;;;-4.30;99.90;;;;;;5067860;28;19919;-78
2023/01/20 07:21:26;;;;;;;;;;;-4.20;99.90;;;;;;5067521;28;19941;-78
2023/01/20 07:23:51;;;;;;;;;;;-4.20;99.90;;;;;;5068429;28;19913;-78
2023/01/20 07:26:18;;;;;;;;;;;-4.10;99.90;;;;;;5069235;28;19913;-78
2023/01/20 07:28:44;;;;;;;;;;;-4.10;99.90;;;;;;5068272;28;19909;-78
2023/01/20 07:31:10;;;;;;;;;;;-4.10;99.90;;;;;;5060666;28;19935;-77
2023/01/20 07:33:36;;;;;;;;;;;-4.20;99.90;;;;;;5055985;28;19913;-77
2023/01/20 07:36:02;;;;;;;;;;;-4.20;99.90;;;;;;5056255;28;19924;-77
2023/01/20 07:38:28;;;;;;;;;;;-4.20;99.90;;;;;;5037823;28;19909;-77
2023/01/20 07:40:57;;;;;;;;;;;-4.20;99.90;;;;;;5037548;28;20043;-77
2023/01/20 07:43:23;;;;;;;;;;;-4.20;99.90;;;;;;5056371;28;20265;-77
2023/01/20 07:45:48;;;;;;;;;;;-4.10;99.90;;;;;;5055736;28;19913;-77
2023/01/20 07:48:14;;;;;;;;;;;-4.10;99.90;;;;;;5055403;28;19913;-77
2023/01/20 07:50:39;;;;;;;;;;;-4.10;99.90;;;;;;5055253;28;19917;-77
2023/01/20 07:53:05;;;;;;;;;;;-4.10;99.90;;;;;;5055144;28;19915;-77
2023/01/20 07:55:32;;;;;;;;;;;-4.10;99.90;;;;;;5055255;28;19909;-77
2023/01/20 07:57:57;;;;;;;;;;;-4.10;99.90;;;;;;5055251;28;19995;-77
2023/01/20 08:00:23;;;;;;;;;;;-4.10;99.90;;;;;;5055045;28;19963;-77
2023/01/20 08:02:49;;;;;;;;;;;-4.10;99.90;;;;;;5055145;28;19908;-78
2023/01/20 08:05:14;;;;;;;;;;;-4.10;99.90;;;;;;5037053;28;19920;-77
2023/01/20 08:07:40;;;;;;;;;;;-4.10;99.90;;;;;;5037127;28;20273;-77
2023/01/20 08:10:06;;;;;;;;;;;-4.00;99.90;;;;;;5055119;28;20396;-78
2023/01/20 08:12:32;;;;;;;;;;;-4.00;99.90;;;;;;5047387;28;20391;-77
2023/01/20 08:14:57;;;;;;;;;;;-3.90;99.90;;;;;;5058285;28;19913;-78
2023/01/20 08:17:23;;;;;;;;;;;-3.90;99.90;;;;;;5037775;28;19936;-78
2023/01/20 08:19:48;;;;;;;;;;;-3.90;99.90;;;;;;5055681;28;19920;-78
2023/01/20 08:22:14;;;;;;;;;;;-3.80;99.90;;;;;;5055366;28;19912;-78
2023/01/20 08:24:39;;;;;;;;;;;-3.80;99.90;;;;;;5055246;28;19913;-77
2023/01/20 08:27:05;;;;;;;;;;;-3.80;99.90;;;;;;5055255;28;19938;-78
2023/01/20 08:29:32;;;;;;;;;;;-3.80;99.90;;;;;;5055127;28;19956;-77
2023/01/20 08:31:58;;;;;;;;;;;-3.70;99.90;;;;;;5037401;28;20343;-77
2023/01/20 08:34:24;;;;;;;;;;;-3.60;99.90;;;;;;5055136;28;20498;-77
2023/01/20 08:36:52;;;;;;;;;;;-3.60;99.90;;;;;;5055426;28;20269;-77
2023/01/20 08:39:18;;;;;;;;;;;-3.60;99.90;;;;;;5054646;28;20413;-78
2023/01/20 08:41:44;;;;;;;;;;;-3.60;99.90;;;;;;5054970;28;19982;-77
2023/01/20 08:44:10;;;;;;;;;;;-3.50;99.90;;;;;;5037018;28;20266;-77
2023/01/20 08:46:36;;;;;;;;;;;-3.50;99.90;;;;;;5054176;28;20329;-77
2023/01/20 08:49:05;;;;;;;;;;;-3.50;99.90;;;;;;5054719;28;20376;-78
2023/01/20 08:51:31;;;;;;;;;;;-3.50;99.90;;;;;;5055140;28;19909;-77
2023/01/20 08:53:57;;;;;;;;;;;-3.50;99.90;;;;;;5054940;28;19913;-78
2023/01/20 08:56:22;;;;;;;;;;;-3.40;99.90;;;;;;5054717;28;19917;-78
2023/01/20 08:58:48;;;;;;;;;;;-3.30;99.90;;;;;;5054810;28;19916;-78
2023/01/20 09:01:16;;;;;;;;;;;-3.30;99.90;;;;;;5036459;28;19967;-77
2023/01/20 09:03:41;;;;;;;;;;;-3.20;99.90;;;;;;5054280;28;19948;-77
2023/01/20 09:06:07;;;;;;;;;;;-3.20;99.90;;;;;;5037162;28;20396;-78
2023/01/20 09:08:33;;;;;;;;;;;-3.10;99.90;;;;;;5054767;28;19995;-78
2023/01/20 09:11:10;;;;;;;;;;;-3.10;99.90;;;;;;5036842;28;20266;-78
2023/01/20 09:13:36;;;;;;;;;;;-3.00;99.90;;;;;;5054940;28;20277;-78
2023/01/20 09:16:03;;;;;;;;;;;-3.10;99.90;;;;;;5054768;28;19916;-78
2023/01/20 09:18:31;;;;;;;;;;;-3.10;99.90;;;;;;5054852;28;19916;-78
2023/01/20 09:20:58;;;;;;;;;;;-3.10;99.90;;;;;;5055324;28;19920;-78
2023/01/20 09:23:24;;;;;;;;;;;-3.00;99.90;;;;;;5055005;28;19913;-78
2023/01/20 09:25:49;;;;;;;;;;;-3.00;99.90;;;;;;5037118;28;20292;-78
2023/01/20 09:28:15;;;;;;;;;;;-3.00;99.90;;;;;;5054852;28;19999;-78
2023/01/20 09:30:41;;;;;;;;;;;-2.90;99.90;;;;;;5055210;28;20423;-78
2023/01/20 09:33:08;;;;;;;;;;;-2.70;99.90;;;;;;5037595;28;19913;-78
2023/01/20 09:35:34;;;;;;;;;;;-2.70;99.90;;;;;;5055227;28;20262;-78
2023/01/20 09:43:55;;;;;;;;;;;-2.50;99.90;;;;;;5054935;28;20339;-78
2023/01/20 09:46:21;;;;;;;;;;;-2.40;99.90;;;;;;5055032;28;19909;-78
2023/01/20 09:54:28;;;;;;;;;;;-2.30;99.90;;;;;;5055040;28;19916;-78
2023/01/20 09:56:56;;;;;;;;;;;-2.20;99.90;;;;;;5055100;28;19909;-78
2023/01/20 09:59:23;;;;;;;;;;;-2.20;99.90;;;;;;5058178;28;20237;-78
2023/01/20 10:02:03;;;;;;;;;;;-2.20;99.90;;;;;;5058702;28;19917;-78
2023/01/20 10:04:35;;;;;;;;;;;-2.10;99.90;;;;;;5058529;28;19955;-78
2023/01/20 10:07:10;;;;;;;;;;;-2.10;99.90;;;;;;5058598;28;19909;-78
2023/01/20 10:09:48;;;;;;;;;;;-2.10;99.90;;;;;;5058450;28;19913;-78
2023/01/20 10:12:16;;;;;;;;;;;-2.00;99.90;;;;;;5058706;28;19999;-78
2023/01/20 10:14:41;;;;;;;;;;;-2.00;99.90;;;;;;5040934;28;20353;-78
2023/01/20 10:17:13;;;;;;;;;;;-2.00;99.90;;;;;;5058852;28;19962;-78
2023/01/20 10:19:44;;;;;;;;;;;-2.00;99.90;;;;;;5058650;28;19916;-78
2023/01/20 10:22:22;;;;;;;;;;;-1.90;99.90;;;;;;5058500;28;19916;-78
2023/01/20 10:24:51;;;;;;;;;;;-1.70;99.90;;;;;;5059244;28;20316;-78
2023/01/20 10:27:17;;;;;;;;;;;-1.60;99.90;;;;;;5058275;28;19909;-78
2023/01/20 10:29:53;;;;;;;;;;;-1.60;99.90;;;;;;5059460;28;20276;-78
2023/01/20 10:32:26;;;;;;;;;;;-1.50;99.90;;;;;;5070906;28;19909;-78
2023/01/20 10:34:56;;;;;;;;;;;-1.40;99.90;;;;;;5059287;28;19915;-78
2023/01/20 10:37:22;;;;;;;;;;;-1.30;99.90;;;;;;5059037;28;19932;-79
2023/01/20 10:40:10;;;;;;;;;;;-1.30;99.90;;;;;;5042387;28;19921;-78
2023/01/20 10:42:35;;;;;;;;;;;-1.20;99.90;;;;;;5059177;28;19909;-78
2023/01/20 10:45:01;;;;;;;;;;;-1.20;99.90;;;;;;5059543;28;20003;-78
2023/01/20 10:47:45;;;;;;;;;;;-1.10;99.90;;;;;;5059582;28;19917;-78
2023/01/20 10:50:29;;;;;;;;;;;-1.00;99.90;;;;;;5041144;28;20361;-79
2023/01/20 10:53:13;;;;;;;;;;;-0.90;99.90;;;;;;5059816;28;19975;-78
2023/01/20 10:55:49;;;;;;;;;;;-0.90;99.90;;;;;;5058715;28;19932;-78
2023/01/20 10:58:22;;;;;;;;;;;-0.80;99.90;;;;;;5040993;28;20377;-78
2023/01/20 11:00:48;;;;;;;;;;;-0.80;99.90;;;;;;5040618;28;20038;-78
2023/01/20 11:03:19;;;;;;;;;;;-0.80;99.90;;;;;;5059167;28;20265;-78
2023/01/20 11:05:46;;;;;;;;;;;-0.70;99.90;;;;;;5058001;28;19951;-78
2023/01/20 11:08:19;;;;;;;;;;;-0.70;99.90;;;;;;5057666;28;19916;-78
2023/01/20 11:10:46;;;;;;;;;;;-0.70;99.90;;;;;;5039194;28;19943;-80
2023/01/20 11:13:12;;;;;;;;;;;-0.70;99.90;;;;;;5040094;28;20392;-79
2023/01/20 11:15:43;;;;;;;;;;;-0.60;99.90;;;;;;5057763;28;19913;-79
2023/01/20 11:18:14;;;;;;;;;;;-0.60;99.90;;;;;;5058508;28;19986;-80
2023/01/20 11:20:47;;;;;;;;;;;-0.50;99.90;;;;;;5058176;28;20480;-79
2023/01/20 11:23:25;;;;;;;;;;;-0.50;99.90;;;;;;5058228;28;19916;-79
2023/01/20 11:25:58;;;;;;;;;;;-0.50;99.90;;;;;;5059047;28;19909;-79
2023/01/20 11:28:24;;;;;;;;;;;-0.50;99.90;;;;;;5057491;28;19909;-79
2023/01/20 11:30:51;;;;;;;;;;;-0.50;99.90;;;;;;5058481;28;19923;-79
2023/01/20 11:33:19;;;;;;;;;;;-0.50;99.90;;;;;;5040747;28;19948;-79
2023/01/20 11:35:57;;;;;;;;;;;-0.50;99.90;;;;;;5040681;28;19908;-79
2023/01/20 11:38:24;;;;;;;;;;;-0.40;99.90;;;;;;5039603;28;20368;-79
2023/01/20 11:40:51;;;;;;;;;;;-0.40;99.90;;;;;;5057439;28;19909;-79
2023/01/20 11:43:26;;;;;;;;;;;-0.40;99.90;;;;;;5057446;28;20319;-79
2023/01/20 11:46:07;;;;;;;;;;;-0.40;99.90;;;;;;5039234;28;19909;-79
2023/01/20 11:48:33;;;;;;;;;;;-0.40;99.90;;;;;;5057406;28;19942;-79
2023/01/20 11:51:02;;;;;;;;;;;-0.40;99.90;;;;;;5056730;28;19917;-79
2023/01/20 11:53:31;;;;;;;;;;;-0.30;99.90;;;;;;5039151;28;19918;-79
2023/01/20 11:56:01;;;;;;;;;;;-0.20;99.90;;;;;;5057729;28;19916;-79
2023/01/20 11:58:31;;;;;;;;;;;-0.10;99.90;;;;;;5058309;28;19909;-79
2023/01/20 12:01:01;;;;;;;;;;;-0.10;99.90;;;;;;5056089;28;19956;-79
2023/01/20 12:03:51;;;;;;;;;;;0.00;99.90;;;;;;5056637;28;19915;-79
2023/01/20 12:06:19;;;;;;;;;;;0.00;99.90;;;;;;5056198;28;19956;-79
2023/01/20 12:08:50;;;;;;;;;;;0.10;99.90;;;;;;5056037;28;19913;-79
2023/01/20 12:11:17;;;;;;;;;;;0.20;99.90;;;;;;5056496;28;20376;-79
2023/01/20 12:14:24;;;;;;;;;;;0.20;99.90;;;;;;5038762;28;19996;-80
2023/01/20 12:16:54;;;;;;;;;;;0.20;99.90;;;;;;5026549;28;19909;-79
2023/01/20 12:19:25;;;;;;;;;;;0.30;99.90;;;;;;5056264;28;19909;-79
2023/01/20 12:21:51;;;;;;;;;;;0.30;99.90;;;;;;5055979;28;20368;-79
2023/01/20 12:24:24;;;;;;;;;;;0.30;99.90;;;;;;5056469;28;19955;-80
2023/01/20 12:26:49;;;;;;;;;;;0.30;99.90;;;;;;5056676;28;19927;-79
2023/01/20 12:29:21;;;;;;;;;;;0.30;99.90;;;;;;5056270;28;19913;-79
2023/01/20 12:31:48;;;;;;;;;;;0.30;99.90;;;;;;5055923;28;20440;-80
2023/01/20 12:34:26;;;;;;;;;;;0.30;99.90;;;;;;5056107;28;19954;-80
2023/01/20 12:37:06;;;;;;;;;;;0.30;99.90;;;;;;5038090;28;19909;-79
2023/01/20 12:39:50;;;;;;;;;;;0.40;99.90;;;;;;5056132;28;20409;-80
2023/01/20 12:42:37;;;;;;;;;;;0.40;99.90;;;;;;5038138;28;19970;-79
2023/01/20 12:45:04;;;;;;;;;;;0.50;99.90;;;;;;5056049;28;19913;-79
2023/01/20 12:47:49;;;;;;;;;;;0.50;99.90;;;;;;5056607;28;19909;-80
2023/01/20 12:50:20;;;;;;;;;;;0.50;99.90;;;;;;5065743;28;19955;-79
2023/01/20 12:52:46;;;;;;;;;;;0.50;99.90;;;;;;5066213;28;19951;-80
2023/01/20 12:55:44;;;;;;;;;;;0.50;99.90;;;;;;5041286;28;19912;-81
2023/01/20 12:58:29;;;;;;;;;;;0.40;99.90;;;;;;5024596;28;19909;-80
2023/01/20 13:01:15;;;;;;;;;;;0.40;99.90;;;;;;5039052;28;19928;-82
2023/01/20 13:03:44;;;;;;;;;;;0.30;99.90;;;;;;5057322;28;19909;-82
2023/01/20 13:06:16;;;;;;;;;;;0.20;99.90;;;;;;5055877;28;19916;-81
2023/01/20 13:08:44;;;;;;;;;;;0.20;99.90;;;;;;5056711;28;19916;-80
2023/01/20 13:11:19;;;;;;;;;;;0.10;99.90;;;;;;5057008;28;19913;-81
2023/01/20 13:13:50;;;;;;;;;;;0.10;99.90;;;;;;5049351;28;19931;-80
2023/01/20 13:16:20;;;;;;;;;;;-0.10;99.90;;;;;;5056191;28;19915;-80
2023/01/20 13:19:04;;;;;;;;;;;-0.10;99.90;;;;;;5056210;28;19915;-80
2023/01/20 13:21:30;;;;;;;;;;;-0.20;99.90;;;;;;5036253;28;20027;-79
2023/01/20 13:23:57;;;;;;;;;;;-0.20;99.90;;;;;;5055720;28;19913;-80
2023/01/20 13:26:23;;;;;;;;;;;-0.30;99.90;;;;;;5055760;28;20368;-80
2023/01/20 13:28:49;;;;;;;;;;;-0.30;99.90;;;;;;5054942;28;19916;-80
2023/01/20 13:31:27;;;;;;;;;;;-0.30;99.90;;;;;;5037702;28;19959;-79
2023/01/20 13:33:53;;;;;;;;;;;-0.40;99.90;;;;;;5059783;28;20322;-79
2023/01/20 13:36:20;;;;;;;;;;;-0.50;99.90;;;;;;5041038;28;19912;-79
2023/01/20 13:38:46;;;;;;;;;;;-0.60;99.90;;;;;;5059322;28;20361;-79
2023/01/20 13:41:32;;;;;;;;;;;-0.60;99.90;;;;;;5058820;28;19916;-79
2023/01/20 13:43:57;;;;;;;;;;;-0.60;99.90;;;;;;5058397;28;19908;-79
2023/01/20 13:46:32;;;;;;;;;;;-0.70;99.90;;;;;;5059112;28;19913;-79
2023/01/20 13:49:11;;;;;;;;;;;-0.70;99.90;;;;;;5059036;28;19915;-79
2023/01/20 13:51:37;;;;;;;;;;;-0.80;99.90;;;;;;5058950;28;19920;-79
2023/01/20 13:54:21;;;;;;;;;;;-0.80;99.90;;;;;;5058782;28;20010;-79
2023/01/20 13:56:46;;;;;;;;;;;-0.80;99.90;;;;;;5058608;28;19916;-79
2023/01/20 13:59:12;;;;;;;;;;;-0.90;99.90;;;;;;5058794;28;19913;-79
2023/01/20 14:01:38;;;;;;;;;;;-0.90;99.90;;;;;;5058134;28;20296;-79
2023/01/20 14:04:05;;;;;;;;;;;-0.80;99.90;;;;;;5058729;28;19913;-79
2023/01/20 14:06:34;;;;;;;;;;;-0.80;99.90;;;;;;5059060;28;19915;-79
2023/01/20 14:09:00;;;;;;;;;;;-0.90;99.90;;;;;;5059214;28;19909;-79
2023/01/20 14:11:27;;;;;;;;;;;-0.90;99.90;;;;;;5058965;28;19912;-79
2023/01/20 14:13:57;;;;;;;;;;;-1.00;99.90;;;;;;5058801;28;19919;-79
2023/01/20 14:16:35;;;;;;;;;;;-1.00;99.90;;;;;;5058946;28;20270;-79
2023/01/20 14:19:16;;;;;;;;;;;-1.00;99.90;;;;;;5041141;28;19959;-79
2023/01/20 14:21:42;;;;;;;;;;;-1.00;99.90;;;;;;5058639;28;19909;-79
2023/01/20 14:24:23;;;;;;;;;;;-1.00;99.90;;;;;;5041331;28;20428;-79
2023/01/20 14:26:48;;;;;;;;;;;-1.00;99.90;;;;;;5059084;28;20007;-79
2023/01/20 14:29:16;;;;;;;;;;;-0.90;99.90;;;;;;5058692;28;19928;-79
2023/01/20 14:31:42;;;;;;;;;;;-0.90;99.90;;;;;;5058710;28;20003;-79
2023/01/20 14:34:27;;;;;;;;;;;-0.90;99.90;;;;;;5040885;28;19943;-79
2023/01/20 14:36:57;;;;;;;;;;;-0.90;99.90;;;;;;5058546;28;19980;-79
2023/01/20 14:39:24;;;;;;;;;;;-0.80;99.90;;;;;;5058695;28;19919;-80